Time;durP1;ratioP1;P1;durP2;ratioP2;P2;SDS_P1;SDS_P2;PMS_P1;PMS_P2;Temp;Humidity;BMP_temperature;BMP_pressure;BME280_temperature;BME280_humidity;BME280_pressure;Samples;Min_cycle;Max_cycle;Signal;HPM_P1;HPM_P2
2021/12/06 00:01:56;;;;;;;38.92;19.73;;;3.50;99.90;;;;;;5078583;28;20097;-85
2021/12/06 00:04:26;;;;;;;35.78;19.38;;;3.50;99.90;;;;;;5082521;28;20430;-85
2021/12/06 00:06:56;;;;;;;35.85;18.60;;;3.50;99.90;;;;;;5095510;28;20469;-85
2021/12/06 00:09:26;;;;;;;40.30;20.13;;;3.50;99.90;;;;;;5093615;28;20040;-85
2021/12/06 00:11:57;;;;;;;42.92;21.52;;;3.50;99.90;;;;;;5092431;28;20039;-86
2021/12/06 00:14:29;;;;;;;37.38;19.55;;;3.50;99.90;;;;;;5093130;28;20546;-85
2021/12/06 00:16:56;;;;;;;37.47;18.13;;;3.50;99.90;;;;;;5076236;28;20035;-85
2021/12/06 00:19:22;;;;;;;40.67;19.85;;;3.40;99.90;;;;;;5073468;28;20082;-85
2021/12/06 00:21:49;;;;;;;40.88;20.13;;;3.40;99.90;;;;;;5079733;28;20063;-86
2021/12/06 00:24:14;;;;;;;45.75;22.08;;;3.40;99.90;;;;;;5094956;28;20496;-85
2021/12/06 00:26:40;;;;;;;42.33;20.50;;;3.30;99.90;;;;;;5097930;28;20122;-85
2021/12/06 00:29:05;;;;;;;47.05;22.23;;;3.30;99.90;;;;;;5076073;28;20066;-85
2021/12/06 00:31:33;;;;;;;45.30;21.50;;;3.30;99.90;;;;;;5095861;28;20065;-85
2021/12/06 00:34:04;;;;;;;50.35;23.52;;;3.30;99.90;;;;;;5088115;28;20032;-86
2021/12/06 00:36:32;;;;;;;45.80;21.92;;;3.30;99.90;;;;;;5076341;28;20071;-85
2021/12/06 00:38:59;;;;;;;46.97;22.88;;;3.30;99.90;;;;;;5083308;28;20048;-86
2021/12/06 00:41:26;;;;;;;46.38;21.45;;;3.30;99.90;;;;;;5075846;28;20044;-85
2021/12/06 00:43:52;;;;;;;49.38;22.85;;;3.30;99.90;;;;;;5075127;28;20061;-85
2021/12/06 00:46:19;;;;;;;49.28;23.08;;;3.30;99.90;;;;;;5092172;28;20397;-85
2021/12/06 00:48:44;;;;;;;52.80;23.38;;;3.30;99.90;;;;;;5082279;28;20035;-85
2021/12/06 00:51:12;;;;;;;48.13;22.85;;;3.30;99.90;;;;;;5082766;28;20042;-85
2021/12/06 00:53:39;;;;;;;47.22;21.77;;;3.30;99.90;;;;;;5080613;28;20497;-85
2021/12/06 00:56:05;;;;;;;47.72;22.15;;;3.30;99.90;;;;;;5095186;28;20447;-85
2021/12/06 00:58:30;;;;;;;45.67;22.35;;;3.30;99.90;;;;;;5080528;28;20032;-85
2021/12/06 01:00:56;;;;;;;48.10;24.13;;;3.30;99.90;;;;;;5094646;28;20481;-85
2021/12/06 01:03:30;;;;;;;48.45;21.75;;;3.30;99.90;;;;;;5099429;28;20400;-86
2021/12/06 01:05:56;;;;;;;48.80;22.20;;;3.30;99.90;;;;;;5095443;28;20092;-85
2021/12/06 01:08:24;;;;;;;44.78;21.25;;;3.30;99.90;;;;;;5092312;28;20024;-85
2021/12/06 01:10:51;;;;;;;48.53;23.58;;;3.30;99.90;;;;;;5096238;28;20081;-85
2021/12/06 01:13:18;;;;;;;45.85;22.55;;;3.30;99.90;;;;;;5082021;28;20519;-85
2021/12/06 01:15:44;;;;;;;49.95;22.83;;;3.30;99.90;;;;;;5094499;28;20074;-85
2021/12/06 01:18:12;;;;;;;44.28;21.55;;;3.30;99.90;;;;;;5078117;28;20050;-85
2021/12/06 01:20:47;;;;;;;50.83;23.25;;;3.40;99.90;;;;;;5094539;28;20040;-85
2021/12/06 01:23:16;;;;;;;52.45;23.40;;;3.40;99.90;;;;;;5092618;28;20028;-85
2021/12/06 01:25:55;;;;;;;48.40;22.55;;;3.40;99.90;;;;;;5098492;28;20040;-85
2021/12/06 01:33:37;;;;;;;47.83;22.67;;;3.40;99.90;;;;;;5092577;28;20097;-85
2021/12/06 01:39:11;;;;;;;44.90;21.83;;;3.50;99.90;;;;;;5098935;28;20645;-85
2021/12/06 01:41:41;;;;;;;44.42;21.58;;;3.50;99.90;;;;;;5093932;28;20040;-85
2021/12/06 01:44:16;;;;;;;46.90;22.00;;;3.50;99.90;;;;;;5097429;28;20036;-85
2021/12/06 01:46:50;;;;;;;53.87;24.67;;;3.40;99.90;;;;;;5093189;28;20514;-86
2021/12/06 01:49:17;;;;;;;40.22;19.42;;;3.50;99.90;;;;;;5108121;28;21178;-85
2021/12/06 01:51:44;;;;;;;44.97;21.25;;;3.50;99.90;;;;;;5099756;28;20036;-85
2021/12/06 01:54:11;;;;;;;44.13;20.83;;;3.50;99.90;;;;;;5096514;28;20407;-85
2021/12/06 01:56:36;;;;;;;46.85;23.48;;;3.60;99.90;;;;;;5093495;28;20036;-85
2021/12/06 01:59:04;;;;;;;50.08;23.40;;;3.60;99.90;;;;;;5085315;28;20040;-85
2021/12/06 02:01:30;;;;;;;54.22;23.83;;;3.50;99.90;;;;;;5093974;28;20699;-85
2021/12/06 02:03:57;;;;;;;50.78;22.90;;;3.60;99.90;;;;;;5089818;28;20028;-85
2021/12/06 02:06:23;;;;;;;50.85;22.65;;;3.50;99.90;;;;;;5075539;28;20405;-85
2021/12/06 02:08:50;;;;;;;51.33;24.67;;;3.50;99.90;;;;;;5080336;28;20514;-85
2021/12/06 02:11:16;;;;;;;50.13;23.38;;;3.50;99.90;;;;;;5074740;28;20041;-85
2021/12/06 02:13:51;;;;;;;48.05;21.75;;;3.50;99.90;;;;;;5089326;28;20040;-85
2021/12/06 02:16:26;;;;;;;50.88;24.15;;;3.40;99.90;;;;;;5098560;28;20039;-85
2021/12/06 02:19:01;;;;;;;50.55;22.88;;;3.50;99.90;;;;;;5081778;28;20118;-85
2021/12/06 02:21:31;;;;;;;48.30;22.65;;;3.40;99.90;;;;;;5094449;28;20051;-85
2021/12/06 02:24:00;;;;;;;51.30;22.48;;;3.50;99.90;;;;;;5079332;28;20074;-85
2021/12/06 02:26:26;;;;;;;48.75;22.65;;;3.40;99.90;;;;;;5078482;28;20040;-85
2021/12/06 02:28:53;;;;;;;50.85;24.08;;;3.40;99.90;;;;;;5091327;28;20481;-85
2021/12/06 02:31:22;;;;;;;55.90;24.10;;;3.40;99.90;;;;;;5079556;28;20081;-85
2021/12/06 02:33:49;;;;;;;52.03;23.38;;;3.40;99.90;;;;;;5071936;28;20039;-85
2021/12/06 02:36:19;;;;;;;45.72;21.10;;;3.40;99.90;;;;;;5078868;28;20028;-85
2021/12/06 02:38:45;;;;;;;49.00;22.17;;;3.40;99.90;;;;;;5094294;28;20063;-85
2021/12/06 02:41:14;;;;;;;48.58;21.15;;;3.40;99.90;;;;;;5080873;28;20031;-85
2021/12/06 02:43:41;;;;;;;50.28;24.08;;;3.30;99.90;;;;;;5092371;28;20361;-85
2021/12/06 02:46:07;;;;;;;51.40;22.88;;;3.30;99.90;;;;;;5081702;28;20137;-86
2021/12/06 02:48:33;;;;;;;51.75;22.13;;;3.40;99.90;;;;;;5101000;28;20229;-85
2021/12/06 02:51:02;;;;;;;51.08;22.40;;;3.40;99.90;;;;;;5092419;28;20036;-85
2021/12/06 02:53:33;;;;;;;53.22;22.63;;;3.50;99.90;;;;;;5083651;28;20071;-85
2021/12/06 02:56:04;;;;;;;48.95;23.70;;;3.50;99.90;;;;;;5080293;28;20039;-85
2021/12/06 03:01:19;;;;;;;53.00;22.52;;;3.50;99.90;;;;;;5092296;28;20139;-85
2021/12/06 03:03:45;;;;;;;55.20;23.77;;;3.50;99.90;;;;;;5094402;28;20040;-85
2021/12/06 03:06:13;;;;;;;52.90;24.15;;;3.50;99.90;;;;;;5080363;28;20119;-85
2021/12/06 03:08:41;;;;;;;57.05;24.38;;;3.60;99.90;;;;;;5091505;28;20504;-85
2021/12/06 03:11:10;;;;;;;55.65;24.85;;;3.60;99.90;;;;;;5098054;28;20119;-85
2021/12/06 03:13:36;;;;;;;55.80;25.67;;;3.60;99.90;;;;;;5098730;28;20176;-85
2021/12/06 03:16:02;;;;;;;54.70;24.27;;;3.60;99.90;;;;;;5074255;28;20138;-85
2021/12/06 03:18:28;;;;;;;57.85;25.58;;;3.60;99.90;;;;;;5091763;28;20435;-85
2021/12/06 03:20:54;;;;;;;55.78;24.15;;;3.60;99.90;;;;;;5095969;28;20035;-85
2021/12/06 03:23:19;;;;;;;57.97;24.85;;;3.60;99.90;;;;;;5076670;28;20485;-85
2021/12/06 03:25:45;;;;;;;52.80;23.05;;;3.60;99.90;;;;;;5092291;28;20064;-85
2021/12/06 03:28:11;;;;;;;55.35;24.30;;;3.50;99.90;;;;;;5077524;28;20027;-85
2021/12/06 03:30:36;;;;;;;61.90;26.63;;;3.60;99.90;;;;;;5089597;28;20047;-85
2021/12/06 03:33:02;;;;;;;55.03;23.77;;;3.50;99.90;;;;;;5089168;28;20071;-85
2021/12/06 03:35:28;;;;;;;58.80;25.23;;;3.50;99.90;;;;;;5090824;28;20517;-85
2021/12/06 03:37:54;;;;;;;62.13;25.75;;;3.60;99.90;;;;;;5072669;28;20124;-85
2021/12/06 03:40:19;;;;;;;62.60;27.15;;;3.60;99.90;;;;;;5083319;28;20886;-85
2021/12/06 03:42:45;;;;;;;60.33;26.52;;;3.60;99.90;;;;;;5091564;28;20064;-85
2021/12/06 03:45:11;;;;;;;63.88;27.45;;;3.60;99.90;;;;;;5079633;28;20039;-85
2021/12/06 03:47:38;;;;;;;65.10;27.38;;;3.60;99.90;;;;;;5078876;28;20045;-85
2021/12/06 03:50:05;;;;;;;60.65;24.77;;;3.60;99.90;;;;;;5093391;28;20089;-85
2021/12/06 03:52:31;;;;;;;65.80;26.65;;;3.60;99.90;;;;;;5088185;28;20039;-85
2021/12/06 03:54:59;;;;;;;68.93;28.48;;;3.60;99.90;;;;;;5081179;28;20089;-85
2021/12/06 03:57:25;;;;;;;65.03;27.33;;;3.60;99.90;;;;;;5093115;28;20043;-85
2021/12/06 03:59:52;;;;;;;66.72;28.02;;;3.60;99.90;;;;;;5072771;28;20400;-85
2021/12/06 04:02:22;;;;;;;67.78;28.65;;;3.60;99.90;;;;;;5077590;28;20035;-85
2021/12/06 04:04:48;;;;;;;69.57;28.23;;;3.50;99.90;;;;;;5091237;28;20122;-85
2021/12/06 04:07:15;;;;;;;65.90;28.85;;;3.60;99.90;;;;;;5074294;28;20134;-85
2021/12/06 04:09:40;;;;;;;61.95;26.38;;;3.60;99.90;;;;;;5091775;28;20093;-85
2021/12/06 04:12:07;;;;;;;66.43;28.17;;;3.60;99.90;;;;;;5073221;28;20035;-85
2021/12/06 04:14:33;;;;;;;65.00;27.13;;;3.60;99.90;;;;;;5072430;28;20059;-85
2021/12/06 04:16:59;;;;;;;70.68;29.25;;;3.60;99.90;;;;;;5090805;28;20039;-85
2021/12/06 04:19:25;;;;;;;68.15;28.63;;;3.60;99.90;;;;;;5078975;28;20040;-85
2021/12/06 04:21:51;;;;;;;75.25;30.75;;;3.60;99.90;;;;;;5099116;28;20028;-85
2021/12/06 04:24:17;;;;;;;71.53;29.08;;;3.60;99.90;;;;;;5075969;28;20096;-85
2021/12/06 04:26:43;;;;;;;72.35;29.25;;;3.60;99.90;;;;;;5080454;28;20035;-85
2021/12/06 04:29:10;;;;;;;68.78;27.55;;;3.60;99.90;;;;;;5072337;28;20040;-85
2021/12/06 04:31:39;;;;;;;69.55;28.88;;;3.60;99.90;;;;;;5077746;28;20036;-85
2021/12/06 04:34:05;;;;;;;71.88;29.40;;;3.60;99.90;;;;;;5074152;28;20591;-85
2021/12/06 04:36:31;;;;;;;71.75;29.40;;;3.60;99.90;;;;;;5087580;28;20039;-85
2021/12/06 04:38:57;;;;;;;66.40;28.80;;;3.70;99.90;;;;;;5072532;28;20064;-85
2021/12/06 04:41:23;;;;;;;58.03;26.52;;;3.70;99.90;;;;;;5079390;28;20031;-85
2021/12/06 04:43:49;;;;;;;68.30;27.77;;;3.70;99.90;;;;;;5089285;28;20065;-85
2021/12/06 04:46:15;;;;;;;67.22;28.88;;;3.70;99.90;;;;;;5073255;28;20036;-85
2021/12/06 04:48:41;;;;;;;69.78;26.20;;;3.70;99.90;;;;;;5070121;28;20400;-85
2021/12/06 04:51:07;;;;;;;60.20;26.92;;;3.70;99.90;;;;;;5088586;28;20059;-86
2021/12/06 04:53:36;;;;;;;65.13;25.95;;;3.70;99.90;;;;;;5090702;28;20059;-85
2021/12/06 04:56:17;;;;;;;57.67;24.90;;;3.70;99.90;;;;;;5089657;28;20415;-86
2021/12/06 04:59:20;;;;;;;56.03;25.00;;;3.60;99.90;;;;;;5087225;28;20062;-86
2021/12/06 05:01:47;;;;;;;57.53;25.05;;;3.60;99.90;;;;;;5093672;28;20066;-86
2021/12/06 05:04:22;;;;;;;56.20;24.27;;;3.60;99.90;;;;;;5075232;28;20489;-85
2021/12/06 05:06:51;;;;;;;54.72;24.17;;;3.60;99.90;;;;;;5093964;28;20039;-85
2021/12/06 05:09:26;;;;;;;55.05;24.15;;;3.60;99.90;;;;;;5079092;28;20647;-85
2021/12/06 05:11:52;;;;;;;55.42;23.88;;;3.60;99.90;;;;;;5075722;28;20557;-85
2021/12/06 05:14:18;;;;;;;60.25;24.88;;;3.60;99.90;;;;;;5075033;28;20127;-86
2021/12/06 05:16:44;;;;;;;55.35;24.48;;;3.60;99.90;;;;;;5097533;28;20059;-85
2021/12/06 05:19:09;;;;;;;61.13;24.63;;;3.60;99.90;;;;;;5099236;28;20483;-85
2021/12/06 05:21:35;;;;;;;60.47;25.83;;;3.60;99.90;;;;;;5074901;28;20060;-85
2021/12/06 05:24:02;;;;;;;64.60;25.05;;;3.70;99.90;;;;;;5090953;28;20436;-85
2021/12/06 05:26:28;;;;;;;66.60;28.48;;;3.60;99.90;;;;;;5075429;28;20126;-85
2021/12/06 05:28:58;;;;;;;72.45;27.50;;;3.60;99.90;;;;;;5091816;28;20131;-86
2021/12/06 05:31:25;;;;;;;63.92;25.52;;;3.60;99.90;;;;;;5086947;28;20023;-85
2021/12/06 05:33:55;;;;;;;67.47;26.85;;;3.60;99.90;;;;;;5098584;28;20551;-85
2021/12/06 05:36:21;;;;;;;60.92;26.00;;;3.60;99.90;;;;;;5082253;28;20492;-85
2021/12/06 05:38:50;;;;;;;70.35;27.05;;;3.70;99.90;;;;;;5095783;28;20094;-85
2021/12/06 05:41:16;;;;;;;77.47;27.77;;;3.60;99.90;;;;;;5095594;28;20048;-85
2021/12/06 05:43:41;;;;;;;62.15;26.00;;;3.70;99.90;;;;;;5076786;28;20040;-85
2021/12/06 05:46:07;;;;;;;62.03;24.33;;;3.60;99.90;;;;;;5099135;28;20035;-85
2021/12/06 05:48:33;;;;;;;65.63;25.88;;;3.60;99.90;;;;;;5091964;28;20071;-85
2021/12/06 05:50:58;;;;;;;70.22;27.75;;;3.70;99.90;;;;;;5079054;28;20132;-85
2021/12/06 05:53:24;;;;;;;74.32;27.55;;;3.60;99.90;;;;;;5096691;28;20051;-85
2021/12/06 05:55:50;;;;;;;65.72;27.17;;;3.60;99.90;;;;;;5067556;28;20582;-85
2021/12/06 05:58:20;;;;;;;71.13;28.60;;;3.70;99.90;;;;;;5077631;28;20032;-85
2021/12/06 06:00:46;;;;;;;65.60;27.40;;;3.70;99.90;;;;;;5091553;28;20377;-85
2021/12/06 06:03:11;;;;;;;71.65;26.63;;;3.70;99.90;;;;;;5099918;28;20105;-85
2021/12/06 06:05:38;;;;;;;73.18;28.50;;;3.70;99.90;;;;;;5100848;28;20115;-85
2021/12/06 06:08:05;;;;;;;63.78;25.23;;;3.70;99.90;;;;;;5079327;28;20281;-85
2021/12/06 06:10:31;;;;;;;69.95;27.30;;;3.70;99.90;;;;;;5120297;28;20073;-85
2021/12/06 06:12:58;;;;;;;71.72;27.63;;;3.70;99.90;;;;;;5122238;28;20024;-85
2021/12/06 06:15:24;;;;;;;60.60;25.45;;;3.70;99.90;;;;;;5105608;28;20385;-85
2021/12/06 06:17:50;;;;;;;71.28;28.58;;;3.70;99.90;;;;;;5120946;28;20028;-85
2021/12/06 06:20:36;;;;;;;64.50;27.42;;;3.70;99.90;;;;;;5096232;28;20046;-85
2021/12/06 06:23:03;;;;;;;64.65;25.10;;;3.70;99.90;;;;;;5097547;28;20796;-85
2021/12/06 06:25:29;;;;;;;59.97;24.67;;;3.70;99.90;;;;;;5088987;28;20078;-85
2021/12/06 06:27:55;;;;;;;63.70;24.27;;;3.70;99.90;;;;;;5098129;28;20113;-85
2021/12/06 06:30:21;;;;;;;61.55;24.77;;;3.70;99.90;;;;;;5076671;28;20039;-85
2021/12/06 06:32:47;;;;;;;61.92;24.90;;;3.70;99.90;;;;;;5076193;28;20063;-85
2021/12/06 06:35:15;;;;;;;59.60;24.83;;;3.70;99.90;;;;;;5092454;28;20036;-85
2021/12/06 06:37:40;;;;;;;62.25;26.33;;;3.70;99.90;;;;;;5085915;28;20046;-85
2021/12/06 06:40:08;;;;;;;61.70;25.33;;;3.60;99.90;;;;;;5076144;28;20040;-85
2021/12/06 06:42:34;;;;;;;65.43;25.75;;;3.70;99.90;;;;;;5068807;28;20194;-85
2021/12/06 06:45:01;;;;;;;70.18;26.42;;;3.70;99.90;;;;;;5094768;28;20039;-85
2021/12/06 06:47:26;;;;;;;60.10;24.10;;;3.70;99.90;;;;;;5092588;28;20042;-85
2021/12/06 06:49:52;;;;;;;66.90;24.92;;;3.70;99.90;;;;;;5087470;28;20032;-85
2021/12/06 06:52:18;;;;;;;60.17;23.10;;;3.70;99.90;;;;;;5078649;28;20051;-85
2021/12/06 06:54:44;;;;;;;60.75;25.48;;;3.60;99.90;;;;;;5098096;28;20032;-85
2021/12/06 06:57:10;;;;;;;66.00;25.17;;;3.60;99.90;;;;;;5082756;28;20458;-85
2021/12/06 06:59:36;;;;;;;63.88;24.35;;;3.60;99.90;;;;;;5092472;28;20035;-85
2021/12/06 07:02:02;;;;;;;66.65;25.60;;;3.60;99.90;;;;;;5091496;28;20046;-85
2021/12/06 07:04:28;;;;;;;69.15;25.17;;;3.60;99.90;;;;;;5089428;28;20050;-85
2021/12/06 07:06:54;;;;;;;66.88;25.52;;;3.60;99.90;;;;;;5093032;28;20036;-85
2021/12/06 07:09:20;;;;;;;67.60;25.48;;;3.60;99.90;;;;;;5079691;28;20040;-85
2021/12/06 07:11:46;;;;;;;66.75;23.98;;;3.60;99.90;;;;;;5095829;28;20044;-85
2021/12/06 07:14:14;;;;;;;65.82;25.02;;;3.60;99.90;;;;;;5076117;28;20085;-85
2021/12/06 07:16:41;;;;;;;64.07;25.25;;;3.60;99.90;;;;;;5094380;28;20058;-85
2021/12/06 07:19:07;;;;;;;61.40;24.08;;;3.60;99.90;;;;;;5087137;28;20098;-85
2021/12/06 07:21:34;;;;;;;60.92;23.77;;;3.60;99.90;;;;;;5093783;28;20040;-85
2021/12/06 07:24:00;;;;;;;61.60;23.23;;;3.60;99.90;;;;;;5093325;28;20067;-85
2021/12/06 07:26:26;;;;;;;57.45;23.13;;;3.50;99.90;;;;;;5093471;28;20041;-85
2021/12/06 07:28:55;;;;;;;60.00;22.95;;;3.60;99.90;;;;;;5079725;28;20028;-85
2021/12/06 07:31:22;;;;;;;57.50;23.27;;;3.60;99.90;;;;;;5088666;28;20063;-85
2021/12/06 07:33:48;;;;;;;56.25;22.92;;;3.50;99.90;;;;;;5100653;28;20566;-85
2021/12/06 07:36:16;;;;;;;54.03;23.00;;;3.60;99.90;;;;;;5073618;28;20520;-85
2021/12/06 07:38:42;;;;;;;54.13;21.38;;;3.60;99.90;;;;;;5091863;28;20040;-85
2021/12/06 07:41:12;;;;;;;52.15;20.20;;;3.60;99.90;;;;;;5091184;28;20047;-85
2021/12/06 07:43:38;;;;;;;49.70;20.75;;;3.50;99.90;;;;;;5071096;28;20089;-84
2021/12/06 07:46:05;;;;;;;49.95;20.90;;;3.60;99.90;;;;;;5072918;28;20027;-85
2021/12/06 07:48:31;;;;;;;50.35;20.15;;;3.50;99.90;;;;;;5074461;28;20036;-86
2021/12/06 07:50:59;;;;;;;52.58;22.60;;;3.50;99.90;;;;;;5075432;28;20085;-86
2021/12/06 07:53:26;;;;;;;54.30;22.10;;;3.50;99.90;;;;;;5099334;28;20115;-86
2021/12/06 07:55:52;;;;;;;55.47;20.90;;;3.60;99.90;;;;;;5074558;28;20032;-86
2021/12/06 07:58:18;;;;;;;50.67;20.35;;;3.60;99.90;;;;;;5097896;28;20048;-86
2021/12/06 08:00:46;;;;;;;50.47;20.83;;;3.60;99.90;;;;;;5095475;28;20401;-86
2021/12/06 08:03:13;;;;;;;52.80;20.95;;;3.60;99.90;;;;;;5085856;28;20036;-85
2021/12/06 08:05:43;;;;;;;50.47;19.98;;;3.60;99.90;;;;;;5086691;28;20028;-85
2021/12/06 08:08:12;;;;;;;50.80;20.73;;;3.60;99.90;;;;;;5070514;28;20059;-85
2021/12/06 08:10:44;;;;;;;55.30;20.45;;;3.60;99.90;;;;;;5086058;28;20083;-84
2021/12/06 08:13:11;;;;;;;53.72;22.60;;;3.50;99.90;;;;;;5071984;28;20036;-85
2021/12/06 08:15:37;;;;;;;57.25;21.85;;;3.50;99.90;;;;;;5070154;28;20039;-85
2021/12/06 08:18:04;;;;;;;49.05;20.63;;;3.60;99.90;;;;;;5075769;28;20416;-84
2021/12/06 08:20:31;;;;;;;54.38;20.88;;;3.50;99.90;;;;;;5074903;28;20150;-85
2021/12/06 08:22:57;;;;;;;52.08;21.55;;;3.60;99.90;;;;;;5077588;28;20366;-85
2021/12/06 08:25:23;;;;;;;50.85;20.25;;;3.60;99.90;;;;;;5081639;28;20374;-86
2021/12/06 08:27:49;;;;;;;47.63;20.10;;;3.60;99.90;;;;;;5094334;28;20227;-85
2021/12/06 08:30:19;;;;;;;50.40;20.67;;;3.60;99.90;;;;;;5077354;28;20473;-85
2021/12/06 08:32:47;;;;;;;53.10;21.38;;;3.50;99.90;;;;;;5082639;28;20047;-86
2021/12/06 08:35:12;;;;;;;50.60;20.13;;;3.60;99.90;;;;;;5085478;28;20396;-86
2021/12/06 08:37:38;;;;;;;52.28;19.88;;;3.60;99.90;;;;;;5069746;28;20240;-86
2021/12/06 08:40:05;;;;;;;50.40;20.73;;;3.60;99.90;;;;;;5065850;28;20518;-86
2021/12/06 08:42:31;;;;;;;48.83;20.85;;;3.60;99.90;;;;;;5064728;28;20043;-92
2021/12/06 08:44:57;;;;;;;56.58;21.55;;;3.60;99.90;;;;;;5093236;28;20085;-85
2021/12/06 08:47:24;;;;;;;47.47;19.80;;;3.60;99.90;;;;;;5088097;28;20088;-85
2021/12/06 08:49:51;;;;;;;46.90;19.55;;;3.60;99.90;;;;;;5097861;28;20036;-92
2021/12/06 08:52:17;;;;;;;43.38;19.95;;;3.60;99.90;;;;;;5095688;28;20041;-85
2021/12/06 08:54:43;;;;;;;48.13;19.77;;;3.60;99.90;;;;;;5067418;28;20116;-86
2021/12/06 08:57:09;;;;;;;45.58;19.33;;;3.60;99.90;;;;;;5081533;28;20074;-87
2021/12/06 08:59:35;;;;;;;47.10;19.52;;;3.50;99.90;;;;;;5081807;28;20040;-87
2021/12/06 09:02:00;;;;;;;53.40;19.88;;;3.50;99.90;;;;;;5081242;28;20079;-86
2021/12/06 09:04:31;;;;;;;43.35;18.60;;;3.50;99.90;;;;;;5082796;28;20028;-86
2021/12/06 09:06:58;;;;;;;44.78;18.80;;;3.50;99.90;;;;;;5078909;28;20482;-87
2021/12/06 09:09:27;;;;;;;44.63;18.55;;;3.50;99.90;;;;;;5088611;28;20580;-86
2021/12/06 09:11:53;;;;;;;45.05;19.73;;;3.50;99.90;;;;;;5085908;28;20040;-87
2021/12/06 09:14:18;;;;;;;45.58;20.85;;;3.50;99.90;;;;;;5071191;28;20372;-87
2021/12/06 09:16:46;;;;;;;41.50;19.27;;;3.50;99.90;;;;;;5091100;28;20119;-86
2021/12/06 09:19:14;;;;;;;39.75;18.48;;;3.40;99.90;;;;;;5084011;28;20082;-87
2021/12/06 09:21:41;;;;;;;39.58;17.90;;;3.50;99.90;;;;;;5088938;28;20115;-87
2021/12/06 09:24:11;;;;;;;41.53;17.58;;;3.50;99.90;;;;;;5084003;28;20578;-87
2021/12/06 09:26:37;;;;;;;37.63;18.17;;;3.50;99.90;;;;;;5084991;28;20507;-87
2021/12/06 09:29:05;;;;;;;44.13;19.20;;;3.50;99.90;;;;;;5091219;28;21295;-95
2021/12/06 09:31:31;;;;;;;47.78;20.35;;;3.50;99.90;;;;;;5081383;28;20044;-86
2021/12/06 09:33:57;;;;;;;45.17;19.35;;;3.50;99.90;;;;;;5068890;28;20040;-86
2021/12/06 09:36:23;;;;;;;42.72;19.02;;;3.50;99.90;;;;;;5072360;28;20040;-86
2021/12/06 09:38:49;;;;;;;43.78;19.48;;;3.60;99.90;;;;;;5085916;28;20048;-85
2021/12/06 09:41:25;;;;;;;42.17;17.85;;;3.60;99.90;;;;;;5070146;28;20028;-85
2021/12/06 09:43:53;;;;;;;46.90;18.98;;;3.60;99.90;;;;;;5083868;28;20150;-86
2021/12/06 09:46:19;;;;;;;44.55;18.95;;;3.70;99.90;;;;;;5071545;28;20040;-86
2021/12/06 09:48:47;;;;;;;46.40;18.65;;;3.70;99.90;;;;;;5071113;28;20043;-85
2021/12/06 09:51:24;;;;;;;45.13;19.70;;;3.70;99.90;;;;;;5089039;28;20032;-85
2021/12/06 09:53:51;;;;;;;56.17;23.10;;;3.80;99.90;;;;;;5083284;28;20048;-86
2021/12/06 09:56:23;;;;;;;65.00;27.90;;;3.80;99.90;;;;;;5085720;28;20557;-86
2021/12/06 09:58:50;;;;;;;64.63;25.60;;;3.80;99.90;;;;;;5067022;28;20075;-85
2021/12/06 10:01:21;;;;;;;72.40;28.90;;;3.90;99.90;;;;;;5087638;28;20854;-85
2021/12/06 10:03:48;;;;;;;63.08;26.15;;;3.80;99.90;;;;;;5067668;28;20040;-85
2021/12/06 10:06:16;;;;;;;56.20;23.45;;;3.80;99.90;;;;;;5086062;28;20481;-85
2021/12/06 10:08:49;;;;;;;63.55;26.83;;;3.80;99.90;;;;;;5071733;28;20074;-85
2021/12/06 10:11:17;;;;;;;68.93;28.92;;;3.80;99.90;;;;;;5084979;28;20048;-85
2021/12/06 10:13:44;;;;;;;67.28;27.75;;;3.80;99.90;;;;;;5087666;28;20044;-85
2021/12/06 10:16:11;;;;;;;65.70;26.33;;;3.80;99.90;;;;;;5089299;28;20508;-86
2021/12/06 10:18:37;;;;;;;61.88;25.27;;;3.80;99.90;;;;;;5072469;28;20036;-85
2021/12/06 10:21:03;;;;;;;54.85;23.20;;;3.80;99.90;;;;;;5088734;28;20052;-85
2021/12/06 10:23:29;;;;;;;53.55;23.35;;;3.80;99.90;;;;;;5089333;28;20166;-84
2021/12/06 10:25:56;;;;;;;49.78;21.00;;;3.80;99.90;;;;;;5088630;28;20505;-86
2021/12/06 10:28:27;;;;;;;52.95;21.65;;;3.80;99.90;;;;;;5089769;28;20040;-87
2021/12/06 10:30:58;;;;;;;46.50;19.58;;;3.80;99.90;;;;;;5071428;28;20036;-85
2021/12/06 10:33:27;;;;;;;52.65;20.60;;;3.90;99.90;;;;;;5072149;28;20040;-85
2021/12/06 10:35:56;;;;;;;47.65;19.85;;;3.90;99.90;;;;;;5088845;28;20032;-85
2021/12/06 10:38:23;;;;;;;48.97;21.42;;;3.90;99.90;;;;;;5085922;28;20052;-85
2021/12/06 10:40:49;;;;;;;52.03;22.30;;;3.90;99.90;;;;;;5068169;28;20131;-85
2021/12/06 10:43:16;;;;;;;48.45;21.27;;;3.90;99.90;;;;;;5082012;28;20335;-85
2021/12/06 10:45:47;;;;;;;48.70;20.25;;;3.90;99.90;;;;;;5087777;28;20040;-85
2021/12/06 10:48:14;;;;;;;48.30;19.08;;;3.90;99.90;;;;;;5088787;28;20389;-86
2021/12/06 10:50:46;;;;;;;41.00;19.15;;;3.90;99.90;;;;;;5072268;28;20044;-85
2021/12/06 10:53:13;;;;;;;42.92;18.65;;;4.00;99.90;;;;;;5085629;28;21515;-86
2021/12/06 10:55:41;;;;;;;40.50;18.08;;;4.00;99.90;;;;;;5068105;28;20044;-86
2021/12/06 10:58:11;;;;;;;41.72;18.83;;;4.00;99.90;;;;;;5071573;28;20032;-85
2021/12/06 11:00:46;;;;;;;38.17;19.30;;;3.90;99.90;;;;;;5070028;28;20119;-85
2021/12/06 11:03:32;;;;;;;44.15;17.77;;;3.90;99.90;;;;;;5087307;28;20756;-85
2021/12/06 11:06:03;;;;;;;40.13;17.90;;;3.90;99.90;;;;;;5088378;28;20565;-86
2021/12/06 11:08:32;;;;;;;37.10;17.58;;;3.90;99.90;;;;;;5088131;28;20036;-86
2021/12/06 11:11:00;;;;;;;38.22;17.35;;;3.90;99.90;;;;;;5067700;28;20063;-85
2021/12/06 11:13:29;;;;;;;36.03;17.05;;;3.90;99.90;;;;;;5084204;28;20555;-85
2021/12/06 11:16:01;;;;;;;37.05;16.13;;;3.90;99.90;;;;;;5084403;28;20065;-86
2021/12/06 11:18:32;;;;;;;38.55;16.23;;;4.00;99.90;;;;;;5088397;28;20040;-85
2021/12/06 11:20:58;;;;;;;30.90;14.82;;;4.00;99.90;;;;;;5066371;28;20082;-86
2021/12/06 11:23:23;;;;;;;32.28;14.80;;;4.00;99.90;;;;;;5067005;28;20067;-84
2021/12/06 11:26:02;;;;;;;41.33;19.48;;;4.00;99.90;;;;;;5081581;28;20520;-85
2021/12/06 11:28:32;;;;;;;36.35;15.85;;;4.00;99.90;;;;;;5076537;28;20036;-85
2021/12/06 11:31:02;;;;;;;34.38;16.27;;;4.10;99.90;;;;;;5085495;28;20358;-85
2021/12/06 11:33:34;;;;;;;41.42;17.75;;;4.10;99.90;;;;;;5086125;28;20301;-85
2021/12/06 11:36:02;;;;;;;42.00;18.20;;;4.10;99.90;;;;;;5087035;28;20039;-85
2021/12/06 11:38:30;;;;;;;38.03;17.35;;;4.20;99.90;;;;;;5081038;28;20088;-84
2021/12/06 11:40:59;;;;;;;39.83;17.40;;;4.20;99.90;;;;;;5068619;28;20028;-84
2021/12/06 11:43:25;;;;;;;40.88;17.65;;;4.20;99.90;;;;;;5065320;28;20032;-85
2021/12/06 11:45:57;;;;;;;40.45;18.20;;;4.20;99.90;;;;;;5067060;28;20115;-85
2021/12/06 11:48:36;;;;;;;43.08;17.98;;;4.30;99.90;;;;;;5085698;28;20556;-84
2021/12/06 11:51:11;;;;;;;38.72;17.83;;;4.30;99.90;;;;;;5070603;28;20042;-84
2021/12/06 11:53:47;;;;;;;39.67;18.90;;;4.30;99.90;;;;;;5084531;28;20058;-84
2021/12/06 11:56:18;;;;;;;39.08;18.60;;;4.30;99.90;;;;;;5065679;28;20110;-84
2021/12/06 11:58:52;;;;;;;43.72;18.35;;;4.30;99.90;;;;;;5080231;28;20114;-85
2021/12/06 12:01:18;;;;;;;43.58;18.40;;;4.30;99.90;;;;;;5076938;28;20642;-86
2021/12/06 12:03:47;;;;;;;33.42;16.20;;;4.30;99.90;;;;;;5067617;28;20047;-85
2021/12/06 12:06:44;;;;;;;33.17;16.35;;;4.30;99.90;;;;;;5063993;28;20107;-83
2021/12/06 12:09:10;;;;;;;;;;;4.40;99.90;;;;;;5087637;28;20044;-84
2021/12/06 12:11:57;;;;;;;34.45;15.45;;;4.40;99.90;;;;;;5066593;28;19942;-82
2021/12/06 12:14:32;;;;;;;31.98;15.50;;;4.40;99.90;;;;;;5068769;28;20052;-86
2021/12/06 12:17:01;;;;;;;36.73;16.60;;;4.40;99.90;;;;;;5080666;28;20115;-83
2021/12/06 12:19:27;;;;;;;34.50;14.90;;;4.50;99.90;;;;;;5082090;28;20051;-85
2021/12/06 12:21:53;;;;;;;33.28;15.10;;;4.50;99.90;;;;;;5084232;28;20054;-85
2021/12/06 12:24:19;;;;;;;32.90;15.95;;;4.50;99.90;;;;;;5085036;28;20496;-84
2021/12/06 12:26:55;;;;;;;31.98;15.05;;;4.50;99.90;;;;;;5081697;28;20020;-84
2021/12/06 12:29:26;;;;;;;39.90;16.23;;;4.50;99.90;;;;;;5078552;28;20032;-84
2021/12/06 12:32:01;;;;;;;40.28;16.85;;;4.50;99.90;;;;;;5085153;28;20213;-84
2021/12/06 12:34:31;;;;;;;35.10;16.35;;;4.50;99.90;;;;;;5082081;28;20033;-83
2021/12/06 12:36:56;;;;;;;35.20;16.00;;;4.50;99.90;;;;;;5101728;28;20082;-82
2021/12/06 12:39:25;;;;;;;38.83;15.88;;;4.50;99.90;;;;;;5082473;28;20487;-84
2021/12/06 12:41:54;;;;;;;35.72;16.08;;;4.50;99.90;;;;;;5086404;28;20121;-84
2021/12/06 12:44:21;;;;;;;38.35;17.55;;;4.50;99.90;;;;;;5084091;28;20086;-83
2021/12/06 12:46:48;;;;;;;40.35;17.63;;;4.50;99.90;;;;;;5090007;28;20477;-83
2021/12/06 12:49:30;;;;;;;44.65;19.77;;;4.50;99.90;;;;;;5101011;28;20035;-82
2021/12/06 12:51:57;;;;;;;46.20;18.33;;;4.60;99.90;;;;;;5096429;28;20067;-84
2021/12/06 12:54:28;;;;;;;43.67;18.35;;;4.50;99.90;;;;;;5072676;28;20443;-85